createdAt,value
2023-04-27T00:03:06.505Z,7.28
2023-04-27T00:07:09.883Z,6.57
2023-04-27T00:11:13.056Z,11.38
2023-04-27T00:15:17.334Z,7.30
2023-04-27T00:19:22.905Z,7.95
2023-04-27T00:23:26.597Z,8.10
2023-04-27T00:27:29.397Z,8.85
2023-04-27T00:31:34.232Z,6.05
2023-04-27T00:35:37.125Z,8.52
2023-04-27T00:39:40.425Z,8.25
2023-04-27T00:43:44.694Z,10.50
2023-04-27T00:47:49.212Z,6.13
2023-04-27T00:51:52.133Z,9.45
2023-04-27T00:55:55.949Z,7.57
2023-04-27T00:59:58.954Z,9.52
2023-04-27T01:04:03.509Z,9.73
2023-04-27T01:08:06.851Z,7.25
2023-04-27T01:12:10.079Z,8.75
2023-04-27T01:16:13.020Z,9.13
2023-04-27T01:20:17.668Z,9.82
2023-04-27T01:24:22.072Z,8.70
2023-04-27T01:28:24.935Z,6.90
2023-04-27T01:32:28.000Z,8.98
2023-04-27T01:36:32.067Z,5.53
2023-04-27T01:40:36.796Z,7.05
2023-04-27T01:44:39.805Z,8.20
2023-04-27T01:48:52.308Z,12.85
2023-04-27T01:52:55.818Z,8.10
2023-04-27T01:57:00.177Z,8.35
2023-04-27T02:01:03.831Z,8.43
2023-04-27T02:05:07.286Z,6.70
2023-04-27T02:09:10.559Z,12.00
2023-04-27T02:13:14.785Z,8.43
2023-04-27T02:17:17.646Z,7.68
2023-04-27T02:21:21.334Z,7.03
2023-04-27T02:25:24.384Z,8.82
2023-04-27T02:29:32.662Z,8.00
2023-04-27T02:33:36.126Z,7.55
2023-04-27T02:37:57.306Z,8.88
2023-04-27T02:42:00.125Z,5.55
2023-04-27T02:46:05.845Z,7.75
2023-04-27T02:50:09.862Z,8.02
2023-04-27T02:54:12.948Z,7.15
2023-04-27T02:58:16.711Z,10.80
2023-04-27T03:02:21.032Z,7.95
2023-04-27T03:06:23.917Z,8.15
2023-04-27T03:10:26.714Z,6.88
2023-04-27T03:14:29.814Z,8.77
2023-04-27T03:18:34.080Z,6.68
2023-04-27T03:22:37.172Z,10.48
2023-04-27T03:26:39.973Z,6.45
2023-04-27T03:30:42.903Z,7.72
2023-04-27T03:34:47.674Z,8.77
2023-04-27T03:39:01.705Z,9.68
2023-04-27T03:43:04.999Z,12.02
2023-04-27T03:47:09.740Z,7.00
2023-04-27T03:51:14.270Z,9.52
2023-04-27T03:55:17.098Z,6.88
2023-04-27T03:59:19.997Z,8.88
2023-04-27T04:03:22.996Z,7.43
2023-04-27T04:07:27.859Z,7.85
2023-04-27T04:11:30.692Z,9.93
2023-04-27T04:15:33.638Z,9.35
2023-04-27T04:19:38.551Z,9.27
2023-04-27T04:23:42.858Z,12.85
2023-04-27T04:31:56.996Z,14.98
2023-04-27T04:35:59.835Z,9.27
2023-04-27T04:40:09.531Z,12.40
2023-04-27T04:44:12.277Z,10.95
2023-04-27T04:48:24.797Z,11.43
2023-04-27T04:52:27.936Z,10.15
2023-04-27T04:56:32.200Z,10.52
2023-04-27T05:00:35.275Z,14.00
2023-04-27T05:04:38.104Z,12.30
2023-04-27T05:08:50.317Z,10.68
2023-04-27T05:12:55.096Z,14.45
2023-04-27T05:16:58.250Z,13.45
2023-04-27T05:21:01.448Z,20.35
2023-04-27T05:25:04.864Z,11.80
2023-04-27T05:29:09.103Z,15.35
2023-04-27T05:33:12.002Z,17.38
2023-04-27T05:37:14.949Z,13.00
2023-04-27T05:41:17.827Z,12.40
2023-04-27T05:45:22.829Z,12.57
2023-04-27T05:49:26.780Z,11.70
2023-04-27T05:53:31.034Z,9.45
2023-04-27T05:57:33.911Z,12.85
2023-04-27T06:01:38.256Z,12.93
2023-04-27T06:05:41.156Z,9.43
2023-04-27T06:09:44.002Z,9.77
2023-04-27T06:13:47.021Z,12.32
2023-04-27T06:17:51.376Z,12.65
2023-04-27T06:21:54.944Z,13.90
2023-04-27T06:25:58.937Z,7.95
2023-04-27T06:30:02.227Z,12.40
2023-04-27T06:34:07.191Z,10.95
2023-04-27T06:38:10.318Z,10.77
2023-04-27T06:42:13.447Z,7.68
2023-04-27T06:46:16.651Z,8.43
2023-04-27T06:50:20.852Z,5.38
2023-04-27T06:54:23.734Z,8.15
2023-04-27T06:58:27.104Z,7.47
2023-04-27T07:02:30.125Z,7.63
2023-04-27T07:06:34.552Z,9.52
2023-04-27T07:10:37.505Z,6.22
2023-04-27T07:14:40.613Z,6.25
2023-04-27T07:18:43.723Z,6.85
2023-04-27T07:22:48.017Z,10.57
2023-04-27T07:26:50.793Z,7.65
2023-04-27T07:30:53.872Z,7.32
2023-04-27T07:34:57.069Z,8.52
2023-04-27T07:39:02.388Z,6.60
2023-04-27T07:43:05.587Z,8.23
2023-04-27T07:47:08.407Z,5.50
2023-04-27T07:51:11.336Z,9.13
2023-04-27T07:55:16.347Z,9.82
2023-04-27T07:59:19.280Z,7.00
2023-04-27T08:03:23.005Z,5.32
2023-04-27T08:07:26.211Z,5.93
2023-04-27T08:11:30.684Z,7.60
2023-04-27T08:15:33.394Z,6.68
2023-04-27T08:19:36.110Z,8.77
2023-04-27T08:23:39.137Z,7.80
2023-04-27T08:27:43.614Z,6.53
2023-04-27T08:31:46.908Z,8.63
2023-04-27T08:39:52.609Z,7.32
2023-04-27T08:43:59.586Z,8.75
2023-04-27T08:48:02.540Z,5.93
2023-04-27T08:52:05.388Z,6.22
2023-04-27T08:56:08.870Z,6.22
2023-04-27T09:00:15.745Z,6.93
2023-04-27T09:04:19.883Z,6.07
2023-04-27T09:08:22.907Z,6.68
2023-04-27T09:12:25.788Z,5.15
2023-04-27T09:16:31.068Z,8.00
2023-04-27T09:20:33.929Z,7.72
2023-04-27T09:25:02.967Z,7.65
2023-04-27T09:29:05.748Z,7.55
2023-04-27T09:33:10.148Z,4.38
2023-04-27T09:37:14.222Z,7.20
2023-04-27T09:41:17.192Z,7.30
2023-04-27T09:49:26.630Z,5.07
2023-04-27T09:53:32.109Z,9.80
2023-04-27T09:57:38.941Z,10.00
2023-04-27T10:01:46.660Z,5.38
2023-04-27T10:06:19.520Z,6.15
2023-04-27T10:10:24.022Z,4.32
2023-04-27T10:14:29.594Z,7.15
2023-04-27T10:18:32.735Z,4.70
2023-04-27T10:22:40.284Z,5.28
2023-04-27T10:26:48.032Z,9.00
2023-04-27T10:30:51.961Z,8.18
2023-04-27T10:35:07.501Z,6.70
2023-04-27T10:39:27.638Z,8.30
2023-04-27T10:43:37.097Z,4.85
2023-04-27T10:47:42.383Z,6.57
2023-04-27T10:51:45.123Z,7.82
2023-04-27T10:55:47.916Z,5.78
2023-04-27T11:00:10.300Z,5.15
2023-04-27T11:04:13.461Z,6.03
2023-04-27T11:08:21.149Z,6.40
2023-04-27T11:12:24.206Z,6.97
2023-04-27T11:16:29.634Z,6.03
2023-04-27T11:20:33.553Z,7.47
2023-04-27T11:24:36.309Z,4.90
2023-04-27T11:32:43.400Z,6.70
2023-04-27T11:36:46.611Z,4.75
2023-04-27T11:41:00.483Z,6.78
2023-04-27T11:45:07.137Z,6.72
2023-04-27T11:49:11.895Z,5.70
2023-04-27T11:53:30.676Z,6.80
2023-04-27T11:57:35.051Z,6.35
2023-04-27T12:01:38.550Z,7.32
2023-04-27T12:05:50.883Z,5.55
2023-04-27T12:09:53.669Z,5.97
2023-04-27T12:13:57.020Z,5.53
2023-04-27T12:17:59.850Z,6.70
2023-04-27T12:22:04.630Z,6.43
2023-04-27T12:26:07.378Z,5.35
2023-04-27T12:30:10.585Z,6.93
2023-04-27T12:34:13.864Z,6.47
2023-04-27T12:38:18.288Z,4.88
2023-04-27T12:42:24.400Z,6.40
2023-04-27T12:46:27.428Z,5.45
2023-04-27T12:50:30.467Z,6.30
2023-04-27T12:54:36.494Z,5.00
2023-04-27T12:58:39.996Z,5.40
2023-04-27T13:02:43.535Z,5.65
2023-04-27T13:06:46.828Z,4.65
2023-04-27T13:10:51.092Z,7.50
2023-04-27T13:14:53.813Z,4.25
2023-04-27T13:22:59.428Z,3.00
2023-04-27T13:27:04.025Z,8.25
2023-04-27T13:31:07.196Z,8.25
2023-04-27T13:35:10.778Z,5.68
2023-04-27T13:39:13.524Z,6.88
2023-04-27T13:47:20.339Z,7.03
2023-04-27T13:51:23.626Z,5.85
2023-04-27T13:55:26.698Z,6.10
2023-04-27T13:59:31.481Z,6.68
2023-04-27T14:03:35.175Z,5.18
2023-04-27T14:07:38.272Z,8.15
2023-04-27T14:11:55.084Z,5.70
2023-04-27T14:16:00.853Z,7.00
2023-04-27T14:20:05.517Z,4.63
2023-04-27T14:24:09.383Z,4.22
2023-04-27T14:28:12.492Z,4.47
2023-04-27T14:32:16.784Z,3.95
2023-04-27T14:36:19.627Z,4.60
2023-04-27T14:44:25.167Z,9.77
2023-04-27T14:48:29.418Z,5.35
2023-04-27T14:52:33.599Z,4.68
2023-04-27T14:56:36.838Z,3.33
2023-04-27T15:00:39.778Z,3.13
2023-04-27T15:04:44.020Z,3.35
2023-04-27T15:08:47.259Z,5.60
2023-04-27T15:12:50.076Z,3.10
2023-04-27T15:16:52.957Z,4.15
2023-04-27T15:20:57.565Z,5.03
2023-04-27T15:25:00.428Z,3.13
2023-04-27T15:29:03.682Z,2.80
2023-04-27T15:33:09.586Z,8.00
2023-04-27T15:37:15.203Z,4.25
2023-04-27T15:41:18.387Z,4.50
2023-04-27T15:45:21.315Z,3.95
2023-04-27T15:53:28.747Z,5.53
2023-04-27T15:57:41.491Z,3.40
2023-04-27T16:01:44.352Z,6.32
2023-04-27T16:05:47.145Z,6.85
2023-04-27T16:09:51.363Z,4.57
2023-04-27T16:13:54.151Z,3.88
2023-04-27T16:17:57.009Z,2.80
2023-04-27T16:22:04.091Z,5.13
2023-04-27T16:26:08.340Z,4.03
2023-04-27T16:30:11.490Z,3.33
2023-04-27T16:34:14.391Z,4.30
2023-04-27T16:38:19.041Z,2.40
2023-04-27T16:42:23.203Z,2.30
2023-04-27T16:46:26.032Z,3.50
2023-04-27T16:50:31.556Z,2.88
2023-04-27T16:54:34.310Z,2.03
2023-04-27T16:58:38.605Z,3.67
2023-04-27T17:02:43.760Z,2.88
2023-04-27T17:06:48.438Z,2.67
2023-04-27T17:10:52.000Z,2.70
2023-04-27T17:15:03.224Z,1.38
2023-04-27T17:19:06.395Z,3.92
2023-04-27T17:27:12.515Z,3.20
2023-04-27T17:31:26.072Z,7.38
2023-04-27T17:35:28.895Z,3.25
2023-04-27T17:39:31.733Z,2.95
2023-04-27T17:43:34.550Z,4.60
2023-04-27T17:47:39.791Z,2.97
2023-04-27T17:51:42.552Z,3.05
2023-04-27T17:55:47.589Z,2.47
2023-04-27T17:59:50.924Z,3.78
2023-04-27T18:08:03.914Z,3.45
2023-04-27T18:12:11.346Z,4.65
2023-04-27T18:16:14.209Z,3.50
2023-04-27T18:20:18.569Z,3.63
2023-04-27T18:24:21.510Z,3.47
2023-04-27T18:28:24.317Z,3.60
2023-04-27T18:32:44.548Z,5.85
2023-04-27T18:36:51.980Z,2.25
2023-04-27T18:40:55.097Z,2.50
2023-04-27T18:45:00.443Z,3.97
2023-04-27T18:49:03.818Z,5.15
2023-04-27T18:53:07.952Z,4.72
2023-04-27T18:57:10.925Z,3.15
2023-04-27T19:01:19.830Z,6.45
2023-04-27T19:05:34.905Z,4.18
2023-04-27T19:09:39.266Z,3.90
2023-04-27T19:13:58.681Z,2.88
2023-04-27T19:18:29.705Z,5.88
2023-04-27T19:22:34.426Z,5.13
2023-04-27T19:26:39.344Z,6.80
2023-04-27T19:30:42.378Z,4.40
2023-04-27T19:34:45.350Z,5.70
2023-04-27T19:38:48.255Z,5.57
2023-04-27T19:42:52.535Z,8.02
2023-04-27T19:46:55.490Z,6.00
2023-04-27T19:51:10.573Z,4.55
2023-04-27T19:55:13.829Z,7.53
2023-04-27T19:59:18.241Z,4.93
2023-04-27T20:03:21.926Z,7.47
2023-04-27T20:07:24.974Z,6.45
2023-04-27T20:11:27.982Z,5.05
2023-04-27T20:15:32.718Z,4.65
2023-04-27T20:19:36.154Z,4.65
2023-04-27T20:24:13.082Z,4.30
2023-04-27T20:28:16.808Z,5.07
2023-04-27T20:36:24.635Z,6.22
2023-04-27T20:40:27.452Z,6.90
2023-04-27T20:44:32.320Z,8.75
2023-04-27T20:48:37.462Z,8.95
2023-04-27T20:52:40.455Z,6.20
2023-04-27T20:56:43.677Z,7.68
2023-04-27T21:00:46.724Z,6.72
2023-04-27T21:04:51.378Z,8.50
2023-04-27T21:08:54.391Z,7.20
2023-04-27T21:12:57.471Z,6.07
2023-04-27T21:17:00.355Z,7.35
2023-04-27T21:21:22.215Z,4.93
2023-04-27T21:25:25.381Z,6.88
2023-04-27T21:29:28.808Z,7.05
2023-04-27T21:33:32.173Z,5.55
2023-04-27T21:37:36.500Z,4.28
2023-04-27T21:41:39.931Z,6.40
2023-04-27T21:45:42.732Z,6.47
2023-04-27T21:49:45.792Z,6.93
2023-04-27T21:53:50.099Z,5.13
2023-04-27T21:57:52.865Z,5.13
2023-04-27T22:02:21.111Z,6.10
2023-04-27T22:06:24.020Z,5.22
2023-04-27T22:10:29.182Z,7.95
2023-04-27T22:14:32.013Z,4.93
2023-04-27T22:18:34.905Z,6.80
2023-04-27T22:22:38.030Z,5.65
2023-04-27T22:26:42.662Z,12.90
2023-04-27T22:30:45.496Z,7.32
2023-04-27T22:34:48.451Z,9.48
2023-04-27T22:38:51.446Z,6.05
2023-04-27T22:42:56.346Z,6.75
2023-04-27T22:47:00.777Z,4.60
2023-04-27T22:51:03.763Z,9.77
2023-04-27T22:55:07.642Z,9.85
2023-04-27T22:59:12.625Z,6.93
2023-04-27T23:03:38.074Z,10.43
2023-04-27T23:07:42.825Z,4.85
2023-04-27T23:11:46.162Z,7.90
2023-04-27T23:15:50.855Z,11.07
2023-04-27T23:19:54.402Z,7.40
2023-04-27T23:28:00.321Z,6.15
2023-04-27T23:32:05.702Z,8.63
2023-04-27T23:36:09.552Z,6.13
2023-04-27T23:40:13.213Z,8.45
2023-04-27T23:44:16.784Z,7.40
2023-04-27T23:48:21.620Z,8.50
2023-04-27T23:52:36.024Z,8.52
2023-04-27T23:56:39.256Z,8.90
